createdAt,value
2023-02-04T00:00:15.731Z,3.60
2023-02-04T00:02:42.762Z,3.13
2023-02-04T00:05:10.408Z,3.85
2023-02-04T00:07:37.461Z,3.47
2023-02-04T00:10:07.655Z,3.75
2023-02-04T00:12:34.584Z,3.83
2023-02-04T00:15:01.619Z,3.95
2023-02-04T00:17:28.540Z,3.63
2023-02-04T00:19:55.488Z,3.83
2023-02-04T00:22:22.415Z,4.00
2023-02-04T00:24:50.702Z,3.72
2023-02-04T00:27:17.877Z,3.47
2023-02-04T00:29:44.789Z,3.70
2023-02-04T00:32:11.832Z,4.15
2023-02-04T00:34:38.808Z,3.95
2023-02-04T00:37:05.851Z,3.63
2023-02-04T00:39:32.835Z,2.90
2023-02-04T00:41:59.709Z,3.35
2023-02-04T00:44:28.828Z,3.20
2023-02-04T00:46:55.715Z,3.33
2023-02-04T00:49:22.653Z,3.40
2023-02-04T00:51:49.717Z,3.33
2023-02-04T00:54:17.217Z,3.28
2023-02-04T00:56:44.706Z,3.95
2023-02-04T00:59:13.815Z,3.60
2023-02-04T01:01:40.736Z,3.60
2023-02-04T01:04:09.771Z,4.13
2023-02-04T01:06:36.756Z,4.07
2023-02-04T01:09:04.318Z,4.38
2023-02-04T01:11:31.711Z,4.10
2023-02-04T01:13:58.871Z,4.50
2023-02-04T01:16:25.939Z,4.50
2023-02-04T01:18:56.031Z,4.82
2023-02-04T01:21:24.257Z,4.72
2023-02-04T01:23:54.053Z,4.40
2023-02-04T01:26:21.257Z,5.38
2023-02-04T01:28:50.987Z,5.10
2023-02-04T01:31:18.224Z,4.50
2023-02-04T01:33:45.226Z,5.05
2023-02-04T01:36:12.261Z,4.53
2023-02-04T01:38:39.259Z,5.18
2023-02-04T01:41:06.592Z,5.32
2023-02-04T01:43:34.296Z,4.95
2023-02-04T01:46:02.734Z,4.90
2023-02-04T01:48:30.051Z,5.07
2023-02-04T01:51:08.073Z,4.95
2023-02-04T01:53:35.753Z,4.80
2023-02-04T01:56:03.338Z,4.38
2023-02-04T01:58:32.341Z,4.10
2023-02-04T02:00:59.306Z,4.82
2023-02-04T02:03:26.236Z,4.10
2023-02-04T02:05:54.335Z,4.07
2023-02-04T02:08:21.398Z,4.15
2023-02-04T02:10:49.500Z,3.70
2023-02-04T02:13:18.267Z,3.55
2023-02-04T02:15:45.479Z,3.85
2023-02-04T02:18:12.677Z,3.10
2023-02-04T02:20:39.776Z,3.17
2023-02-04T02:23:27.788Z,2.97
2023-02-04T02:25:56.863Z,2.92
2023-02-04T02:28:24.111Z,2.58
2023-02-04T02:30:51.567Z,2.80
2023-02-04T02:33:22.201Z,2.45
2023-02-04T02:35:49.375Z,2.50
2023-02-04T02:38:18.045Z,2.42
2023-02-04T02:40:45.569Z,2.40
2023-02-04T02:43:23.155Z,2.10
2023-02-04T02:45:50.655Z,2.40
2023-02-04T02:48:17.806Z,2.30
2023-02-04T02:50:45.051Z,2.30
2023-02-04T02:53:19.513Z,2.28
2023-02-04T02:55:46.877Z,1.98
2023-02-04T02:58:42.940Z,1.95
2023-02-04T03:01:12.943Z,2.05
2023-02-04T03:03:49.003Z,2.45
2023-02-04T03:06:24.621Z,2.15
2023-02-04T03:08:55.304Z,1.83
2023-02-04T03:11:23.032Z,2.78
2023-02-04T03:13:51.372Z,2.33
2023-02-04T03:16:18.454Z,2.42
2023-02-04T03:18:45.533Z,2.15
2023-02-04T03:21:12.450Z,2.22
2023-02-04T03:23:39.530Z,1.92
2023-02-04T03:26:06.756Z,1.67
2023-02-04T03:28:33.749Z,1.70
2023-02-04T03:31:00.771Z,1.52
2023-02-04T03:33:32.008Z,1.75
2023-02-04T03:35:59.313Z,1.90
2023-02-04T03:38:28.919Z,1.80
2023-02-04T03:40:55.791Z,1.70
2023-02-04T03:43:22.717Z,1.63
2023-02-04T03:45:49.585Z,1.73
2023-02-04T03:48:16.536Z,2.05
2023-02-04T03:50:48.725Z,1.67
2023-02-04T03:53:15.672Z,2.08
2023-02-04T03:55:42.522Z,2.03
2023-02-04T03:58:11.918Z,2.10
2023-02-04T04:00:38.871Z,2.03
2023-02-04T04:03:05.845Z,2.88
2023-02-04T04:05:32.764Z,2.35
2023-02-04T04:07:59.704Z,2.50
2023-02-04T04:10:26.562Z,2.80
2023-02-04T04:12:53.449Z,2.53
2023-02-04T04:15:20.310Z,2.33
2023-02-04T04:17:47.242Z,1.98
2023-02-04T04:20:14.157Z,2.53
2023-02-04T04:22:41.105Z,2.38
2023-02-04T04:25:08.601Z,2.15
2023-02-04T04:27:37.674Z,1.60
2023-02-04T04:30:04.872Z,1.85
2023-02-04T04:32:31.820Z,1.80
2023-02-04T04:35:01.310Z,1.90
2023-02-04T04:37:30.661Z,1.85
2023-02-04T04:39:57.582Z,1.85
2023-02-04T04:42:24.488Z,1.40
2023-02-04T04:44:51.381Z,1.65
2023-02-04T04:47:18.342Z,1.80
2023-02-04T04:49:49.927Z,1.60
2023-02-04T04:52:16.832Z,1.80
2023-02-04T04:54:45.879Z,2.13
2023-02-04T04:57:12.764Z,1.90
2023-02-04T04:59:39.620Z,1.90
2023-02-04T05:02:06.480Z,1.77
2023-02-04T05:04:35.475Z,1.88
2023-02-04T05:07:04.649Z,1.50
2023-02-04T05:09:31.503Z,2.22
2023-02-04T05:11:58.424Z,2.10
2023-02-04T05:14:25.277Z,1.98
2023-02-04T05:16:52.199Z,2.05
2023-02-04T05:19:19.068Z,2.15
2023-02-04T05:21:45.933Z,1.92
2023-02-04T05:24:12.829Z,2.03
2023-02-04T05:26:39.816Z,1.90
2023-02-04T05:29:06.649Z,2.03
2023-02-04T05:31:34.202Z,1.95
2023-02-04T05:34:03.652Z,1.85
2023-02-04T05:36:30.513Z,1.63
2023-02-04T05:38:57.486Z,1.50
2023-02-04T05:41:24.472Z,1.58
2023-02-04T05:43:51.306Z,1.45
2023-02-04T05:46:18.231Z,1.40
2023-02-04T05:48:45.098Z,2.83
2023-02-04T05:51:11.933Z,2.53
2023-02-04T05:53:38.798Z,2.63
2023-02-04T05:56:05.885Z,2.40
2023-02-04T05:58:35.603Z,2.33
2023-02-04T06:01:07.135Z,2.20
2023-02-04T06:03:34.193Z,2.38
2023-02-04T06:06:01.235Z,2.15
2023-02-04T06:08:28.208Z,2.08
2023-02-04T06:10:55.171Z,1.90
2023-02-04T06:13:22.129Z,1.95
2023-02-04T06:15:49.049Z,1.77
2023-02-04T06:18:15.975Z,2.40
2023-02-04T06:20:42.960Z,2.15
2023-02-04T06:23:09.880Z,2.65
2023-02-04T06:25:36.950Z,2.67
2023-02-04T06:28:04.343Z,2.90
2023-02-04T06:30:32.284Z,2.13
2023-02-04T06:32:59.366Z,2.55
2023-02-04T06:35:26.406Z,1.90
2023-02-04T06:37:53.365Z,2.20
2023-02-04T06:40:20.373Z,2.30
2023-02-04T06:42:50.747Z,2.05
2023-02-04T06:45:17.748Z,2.55
2023-02-04T06:47:44.675Z,3.30
2023-02-04T06:50:18.698Z,2.80
2023-02-04T06:52:48.860Z,2.92
2023-02-04T06:55:17.203Z,3.35
2023-02-04T06:57:45.020Z,3.00
2023-02-04T07:00:15.305Z,2.70
2023-02-04T07:02:42.605Z,1.95
2023-02-04T07:05:09.647Z,1.95
2023-02-04T07:07:38.685Z,1.55
2023-02-04T07:10:05.900Z,1.40
2023-02-04T07:12:32.952Z,1.10
2023-02-04T07:14:59.787Z,0.90
2023-02-04T07:17:26.752Z,0.90
2023-02-04T07:19:53.767Z,1.20
2023-02-04T07:22:20.833Z,1.10
2023-02-04T07:24:47.928Z,0.90
2023-02-04T07:27:15.015Z,1.00
2023-02-04T07:29:42.038Z,1.10
2023-02-04T07:32:09.011Z,1.80
2023-02-04T07:34:36.201Z,2.63
2023-02-04T07:37:03.490Z,2.65
2023-02-04T07:39:30.383Z,2.65
2023-02-04T07:41:57.266Z,3.13
2023-02-04T07:44:24.382Z,2.70
2023-02-04T07:46:51.275Z,2.05
2023-02-04T07:49:22.793Z,1.40
2023-02-04T07:51:49.802Z,1.65
2023-02-04T07:54:16.780Z,1.42
2023-02-04T07:56:43.872Z,1.90
2023-02-04T07:59:10.810Z,1.48
2023-02-04T08:01:37.811Z,1.42
2023-02-04T08:04:05.034Z,1.55
2023-02-04T08:06:31.992Z,1.63
2023-02-04T08:08:59.144Z,1.30
2023-02-04T08:11:30.956Z,1.70
2023-02-04T08:13:57.813Z,2.05
2023-02-04T08:16:26.955Z,1.77
2023-02-04T08:18:56.035Z,1.83
2023-02-04T08:21:22.892Z,1.30
2023-02-04T08:23:49.750Z,1.50
2023-02-04T08:26:16.643Z,1.58
2023-02-04T08:28:43.565Z,2.40
2023-02-04T08:31:13.437Z,2.58
2023-02-04T08:33:40.475Z,2.72
2023-02-04T08:36:07.968Z,1.65
2023-02-04T08:38:35.068Z,1.85
2023-02-04T08:41:02.368Z,2.05
2023-02-04T08:43:31.956Z,2.45
2023-02-04T08:45:58.948Z,2.42
2023-02-04T08:48:25.925Z,2.38
2023-02-04T08:50:52.808Z,2.55
2023-02-04T08:53:19.741Z,2.38
2023-02-04T08:55:46.621Z,2.15
2023-02-04T08:58:13.499Z,2.35
2023-02-04T09:00:40.350Z,2.47
2023-02-04T09:03:09.473Z,2.28
2023-02-04T09:05:36.420Z,2.67
2023-02-04T09:08:03.480Z,2.30
2023-02-04T09:10:30.665Z,2.00
2023-02-04T09:12:57.771Z,2.30
2023-02-04T09:15:25.203Z,1.90
2023-02-04T09:18:01.434Z,2.08
2023-02-04T09:20:29.546Z,2.80
2023-02-04T09:22:56.643Z,2.85
2023-02-04T09:25:23.521Z,2.28
2023-02-04T09:27:50.486Z,1.80
2023-02-04T09:30:17.736Z,2.22
2023-02-04T09:32:44.647Z,2.53
2023-02-04T09:35:11.606Z,1.75
2023-02-04T09:37:38.493Z,2.25
2023-02-04T09:40:05.809Z,1.92
2023-02-04T09:42:32.916Z,2.10
2023-02-04T09:45:03.137Z,2.33
2023-02-04T09:47:30.654Z,2.13
2023-02-04T09:49:57.553Z,2.10
2023-02-04T09:52:24.821Z,1.85
2023-02-04T09:54:53.794Z,1.77
2023-02-04T09:57:20.988Z,1.88
2023-02-04T09:59:48.051Z,1.88
2023-02-04T10:02:27.838Z,1.92
2023-02-04T10:04:57.880Z,1.77
2023-02-04T10:07:27.251Z,2.28
2023-02-04T10:09:55.029Z,2.10
2023-02-04T10:12:22.160Z,2.20
2023-02-04T10:14:49.652Z,1.83
2023-02-04T10:17:21.606Z,2.47
2023-02-04T10:19:48.676Z,2.20
2023-02-04T10:22:19.585Z,2.03
2023-02-04T10:24:46.557Z,2.60
2023-02-04T10:27:17.262Z,2.50
2023-02-04T10:29:58.840Z,2.33
2023-02-04T10:32:31.440Z,2.00
2023-02-04T10:35:00.426Z,2.28
2023-02-04T10:37:27.613Z,2.10
2023-02-04T10:39:54.716Z,2.50
2023-02-04T10:42:23.184Z,2.72
2023-02-04T10:44:50.210Z,2.20
2023-02-04T10:47:23.770Z,2.38
2023-02-04T10:49:53.645Z,2.10
2023-02-04T10:52:22.933Z,2.15
2023-02-04T10:54:52.241Z,1.95
2023-02-04T10:57:25.756Z,2.30
2023-02-04T10:59:56.163Z,2.40
2023-02-04T11:02:30.325Z,1.85
2023-02-04T11:04:57.279Z,1.70
2023-02-04T11:07:27.126Z,1.98
2023-02-04T11:09:57.203Z,2.20
2023-02-04T11:12:48.168Z,1.77
2023-02-04T11:15:41.567Z,1.90
2023-02-04T11:18:10.061Z,1.98
2023-02-04T11:20:39.962Z,2.20
2023-02-04T11:23:25.783Z,2.20
2023-02-04T11:26:17.398Z,1.73
2023-02-04T11:28:50.570Z,2.33
2023-02-04T11:31:20.670Z,1.95
2023-02-04T11:33:48.801Z,1.90
2023-02-04T11:36:16.822Z,2.10
2023-02-04T11:38:50.953Z,2.03
2023-02-04T11:41:33.477Z,1.98
2023-02-04T11:44:00.560Z,1.73
2023-02-04T11:46:27.754Z,1.65
2023-02-04T11:48:55.902Z,1.60
2023-02-04T11:51:28.702Z,1.52
2023-02-04T11:53:55.742Z,1.48
2023-02-04T11:56:23.422Z,1.80
2023-02-04T11:58:54.466Z,1.80
2023-02-04T12:01:25.184Z,1.60
2023-02-04T12:04:03.307Z,1.42
2023-02-04T12:06:36.014Z,1.50
2023-02-04T12:09:06.880Z,1.90
2023-02-04T12:11:34.189Z,1.15
2023-02-04T12:14:09.330Z,1.20
2023-02-04T12:16:49.590Z,1.42
2023-02-04T12:19:16.494Z,1.40
2023-02-04T12:21:46.051Z,1.67
2023-02-04T12:24:12.934Z,1.50
2023-02-04T12:26:39.882Z,1.38
2023-02-04T12:29:06.928Z,1.40
2023-02-04T12:31:34.148Z,1.60
2023-02-04T12:34:01.293Z,1.50
2023-02-04T12:36:29.833Z,1.40
2023-02-04T12:38:58.908Z,1.10
2023-02-04T12:41:26.511Z,1.10
2023-02-04T12:43:55.684Z,1.50
2023-02-04T12:46:22.817Z,1.48
2023-02-04T12:48:49.698Z,1.50
2023-02-04T12:51:16.646Z,1.90
2023-02-04T12:53:43.586Z,1.80
2023-02-04T12:56:12.728Z,2.03
2023-02-04T12:58:42.158Z,2.13
2023-02-04T13:01:09.142Z,2.38
2023-02-04T13:03:36.283Z,1.45
2023-02-04T13:06:05.300Z,1.50
2023-02-04T13:08:34.433Z,1.75
2023-02-04T13:11:01.346Z,2.30
2023-02-04T13:13:28.201Z,1.55
2023-02-04T13:15:55.226Z,1.40
2023-02-04T13:18:22.140Z,1.08
2023-02-04T13:20:49.025Z,1.50
2023-02-04T13:23:15.954Z,1.20
2023-02-04T13:25:44.642Z,1.40
2023-02-04T13:28:11.627Z,1.23
2023-02-04T13:30:38.598Z,1.15
2023-02-04T13:33:05.579Z,1.38
2023-02-04T13:35:33.011Z,1.73
2023-02-04T13:38:00.219Z,1.20
2023-02-04T13:40:27.168Z,1.52
2023-02-04T13:42:54.063Z,1.15
2023-02-04T13:45:23.471Z,1.30
2023-02-04T13:47:50.826Z,1.00
2023-02-04T13:50:17.864Z,1.27
2023-02-04T13:52:44.756Z,1.20
2023-02-04T13:55:11.656Z,1.50
2023-02-04T13:57:38.604Z,1.60
2023-02-04T14:00:07.288Z,1.27
2023-02-04T14:02:36.596Z,1.58
2023-02-04T14:05:03.571Z,1.60
2023-02-04T14:07:30.624Z,1.13
2023-02-04T14:09:57.569Z,1.48
2023-02-04T14:12:24.507Z,2.35
2023-02-04T14:14:54.826Z,1.40
2023-02-04T14:17:21.661Z,1.52
2023-02-04T14:19:50.858Z,1.75
2023-02-04T14:22:18.246Z,1.60
2023-02-04T14:24:45.143Z,1.35
2023-02-04T14:27:12.035Z,1.38
2023-02-04T14:29:38.994Z,1.30
2023-02-04T14:32:06.100Z,1.50
2023-02-04T14:34:33.057Z,1.92
2023-02-04T14:37:00.101Z,1.63
2023-02-04T14:39:29.493Z,1.50
2023-02-04T14:41:56.343Z,1.45
2023-02-04T14:44:25.767Z,1.60
2023-02-04T14:46:52.769Z,1.70
2023-02-04T14:49:19.804Z,2.10
2023-02-04T14:51:49.196Z,2.60
2023-02-04T14:54:16.483Z,2.58
2023-02-04T14:56:44.645Z,2.92
2023-02-04T14:59:11.593Z,3.45
2023-02-04T15:01:42.329Z,3.30
2023-02-04T15:04:11.197Z,2.97
2023-02-04T15:06:38.974Z,2.67
2023-02-04T15:09:05.960Z,2.25
2023-02-04T15:11:34.702Z,2.65
2023-02-04T15:14:04.172Z,1.98
2023-02-04T15:16:31.084Z,2.53
2023-02-04T15:18:57.978Z,2.25
2023-02-04T15:21:24.987Z,1.90
2023-02-04T15:23:52.050Z,2.00
2023-02-04T15:26:18.995Z,2.22
2023-02-04T15:28:45.870Z,7.78
2023-02-04T15:31:12.832Z,2.97
2023-02-04T15:33:39.825Z,1.98
2023-02-04T15:36:07.034Z,1.77
2023-02-04T15:38:33.969Z,1.58
2023-02-04T15:41:04.534Z,1.77
2023-02-04T15:43:31.564Z,1.88
2023-02-04T15:45:58.560Z,2.08
2023-02-04T15:48:27.585Z,2.70
2023-02-04T15:51:01.664Z,3.13
2023-02-04T15:53:30.660Z,2.17
2023-02-04T15:55:57.536Z,2.53
2023-02-04T15:58:24.440Z,2.55
2023-02-04T16:00:51.287Z,2.85
2023-02-04T16:03:18.227Z,2.67
2023-02-04T16:05:45.194Z,2.40
2023-02-04T16:08:14.173Z,2.80
2023-02-04T16:10:41.072Z,2.65
2023-02-04T16:13:07.996Z,2.90
2023-02-04T16:15:35.309Z,2.75
2023-02-04T16:18:02.395Z,2.88
2023-02-04T16:20:29.368Z,2.58
2023-02-04T16:22:57.160Z,3.15
2023-02-04T16:25:24.478Z,2.50
2023-02-04T16:27:51.460Z,2.38
2023-02-04T16:30:20.585Z,2.58
2023-02-04T16:32:47.628Z,2.40
2023-02-04T16:35:14.655Z,2.28
2023-02-04T16:37:41.749Z,2.40
2023-02-04T16:40:11.239Z,2.35
2023-02-04T16:42:38.136Z,2.60
2023-02-04T16:45:05.507Z,2.47
2023-02-04T16:47:32.381Z,2.25
2023-02-04T16:50:01.112Z,2.70
2023-02-04T16:52:28.737Z,2.67
2023-02-04T16:54:55.815Z,2.33
2023-02-04T16:57:22.696Z,2.15
2023-02-04T16:59:49.720Z,2.28
2023-02-04T17:02:16.645Z,2.78
2023-02-04T17:04:43.545Z,2.25
2023-02-04T17:07:10.446Z,2.58
2023-02-04T17:09:38.192Z,2.53
2023-02-04T17:12:05.292Z,3.08
2023-02-04T17:14:32.227Z,3.13
2023-02-04T17:16:59.170Z,3.38
2023-02-04T17:19:30.616Z,3.65
2023-02-04T17:21:57.641Z,3.53
2023-02-04T17:24:24.650Z,3.60
2023-02-04T17:26:51.597Z,2.80
2023-02-04T17:29:18.699Z,2.72
2023-02-04T17:31:45.686Z,2.75
2023-02-04T17:34:12.657Z,2.60
2023-02-04T17:36:39.812Z,3.17
2023-02-04T17:39:07.732Z,2.90
2023-02-04T17:41:37.073Z,3.33
2023-02-04T17:44:06.191Z,2.95
2023-02-04T17:46:38.082Z,2.70
2023-02-04T17:49:04.986Z,3.00
2023-02-04T17:51:31.864Z,3.53
2023-02-04T17:53:58.680Z,3.20
2023-02-04T17:56:26.097Z,3.50
2023-02-04T17:58:55.852Z,3.72
2023-02-04T18:01:26.050Z,4.18
2023-02-04T18:03:53.219Z,5.05
2023-02-04T18:06:24.586Z,4.47
2023-02-04T18:08:53.094Z,5.07
2023-02-04T18:11:27.336Z,5.55
2023-02-04T18:14:15.588Z,5.28
2023-02-04T18:16:42.811Z,5.10
2023-02-04T18:19:15.871Z,5.05
2023-02-04T18:21:45.168Z,4.82
2023-02-04T18:24:36.225Z,4.47
2023-02-04T18:27:15.454Z,4.28
2023-02-04T18:29:44.376Z,4.32
2023-02-04T18:32:20.322Z,5.22
2023-02-04T18:34:49.907Z,4.60
2023-02-04T18:37:35.905Z,4.25
2023-02-04T18:40:08.976Z,3.97
2023-02-04T18:42:41.398Z,4.78
2023-02-04T18:45:27.341Z,4.93
2023-02-04T18:47:56.226Z,4.97
2023-02-04T18:50:32.864Z,5.10
2023-02-04T18:53:15.277Z,4.78
2023-02-04T18:58:40.637Z,4.03
2023-02-04T19:01:10.694Z,4.25
2023-02-04T19:03:45.456Z,4.47
2023-02-04T19:06:30.146Z,4.93
2023-02-04T19:09:17.448Z,3.85
2023-02-04T19:11:45.234Z,3.88
2023-02-04T19:14:18.822Z,4.32
2023-02-04T19:16:47.033Z,3.65
2023-02-04T19:19:39.439Z,3.35
2023-02-04T19:22:35.518Z,4.43
2023-02-04T19:25:20.403Z,3.53
2023-02-04T19:27:54.663Z,3.15
2023-02-04T19:30:30.775Z,3.13
2023-02-04T19:33:02.477Z,2.85
2023-02-04T19:35:39.568Z,2.85
2023-02-04T19:38:29.722Z,3.03
2023-02-04T19:40:56.605Z,2.38
2023-02-04T19:43:32.290Z,2.92
2023-02-04T19:45:59.377Z,2.60
2023-02-04T19:48:38.912Z,2.55
2023-02-04T19:51:21.372Z,2.60
2023-02-04T19:53:54.590Z,2.58
2023-02-04T19:56:34.505Z,2.67
2023-02-04T19:59:24.131Z,2.50
2023-02-04T20:02:22.476Z,2.92
2023-02-04T20:04:53.880Z,2.78
2023-02-04T20:07:23.865Z,2.58
2023-02-04T20:10:13.640Z,2.88
2023-02-04T20:12:41.344Z,2.22
2023-02-04T20:15:23.726Z,3.15
2023-02-04T20:20:30.849Z,2.88
2023-02-04T20:22:57.783Z,3.05
2023-02-04T20:25:38.526Z,3.30
2023-02-04T20:28:26.642Z,2.45
2023-02-04T20:30:54.812Z,3.20
2023-02-04T20:33:35.276Z,3.25
2023-02-04T20:36:23.984Z,3.40
2023-02-04T20:38:53.492Z,2.88
2023-02-04T20:41:21.659Z,3.50
2023-02-04T20:43:54.145Z,3.78
2023-02-04T20:46:25.573Z,4.60
2023-02-04T20:48:52.855Z,2.70
2023-02-04T20:51:24.533Z,3.45
2023-02-04T20:53:58.363Z,3.83
2023-02-04T20:56:28.254Z,3.75
2023-02-04T20:59:12.729Z,10.02
2023-02-04T21:01:48.645Z,4.15
2023-02-04T21:04:33.706Z,3.28
2023-02-04T21:07:03.463Z,4.07
2023-02-04T21:09:32.813Z,2.97
2023-02-04T21:12:00.699Z,3.85
2023-02-04T21:14:29.134Z,3.70
2023-02-04T21:16:56.864Z,4.28
2023-02-04T21:19:26.032Z,3.72
2023-02-04T21:21:55.932Z,3.55
2023-02-04T21:24:26.543Z,4.22
2023-02-04T21:27:01.134Z,4.28
2023-02-04T21:29:28.063Z,4.10
2023-02-04T21:31:57.436Z,4.45
2023-02-04T21:34:24.368Z,4.95
2023-02-04T21:36:51.255Z,4.20
2023-02-04T21:39:18.195Z,3.97
2023-02-04T21:41:46.134Z,4.93
2023-02-04T21:44:13.102Z,4.43
2023-02-04T21:46:42.599Z,4.50
2023-02-04T21:49:09.476Z,4.07
2023-02-04T21:51:36.479Z,4.80
2023-02-04T21:54:05.292Z,3.90
2023-02-04T21:56:32.228Z,4.53
2023-02-04T21:58:59.191Z,4.65
2023-02-04T22:01:26.192Z,4.25
2023-02-04T22:03:55.273Z,3.78
2023-02-04T22:06:22.182Z,4.35
2023-02-04T22:08:49.155Z,4.72
2023-02-04T22:11:17.226Z,4.30
2023-02-04T22:13:45.812Z,4.18
2023-02-04T22:16:12.868Z,4.00
2023-02-04T22:18:41.880Z,4.40
2023-02-04T22:21:08.835Z,5.00
2023-02-04T22:23:35.674Z,4.68
2023-02-04T22:26:02.685Z,4.07
2023-02-04T22:28:29.536Z,4.30
2023-02-04T22:30:56.477Z,4.20
2023-02-04T22:33:23.497Z,4.00
2023-02-04T22:35:50.355Z,4.60
2023-02-04T22:38:20.180Z,4.28
2023-02-04T22:40:48.634Z,4.50
2023-02-04T22:43:15.928Z,4.60
2023-02-04T22:45:42.941Z,4.40
2023-02-04T22:48:09.868Z,4.05
2023-02-04T22:50:36.794Z,3.72
2023-02-04T22:53:03.708Z,3.53
2023-02-04T22:55:30.629Z,4.13
2023-02-04T22:57:59.990Z,3.88
2023-02-04T23:00:26.964Z,3.83
2023-02-04T23:02:53.861Z,3.30
2023-02-04T23:05:20.762Z,3.25
2023-02-04T23:07:47.894Z,3.95
2023-02-04T23:10:14.934Z,3.70
2023-02-04T23:12:41.845Z,3.33
2023-02-04T23:15:11.378Z,3.78
2023-02-04T23:17:38.336Z,3.78
2023-02-04T23:20:05.631Z,3.63
2023-02-04T23:22:32.979Z,3.40
2023-02-04T23:24:59.882Z,3.40
2023-02-04T23:27:26.848Z,3.95
2023-02-04T23:29:53.725Z,3.95
2023-02-04T23:32:20.771Z,3.83
2023-02-04T23:34:47.664Z,3.88
2023-02-04T23:37:14.567Z,3.58
2023-02-04T23:39:41.415Z,4.00
2023-02-04T23:42:10.388Z,3.92
2023-02-04T23:44:37.308Z,4.57
2023-02-04T23:47:04.268Z,4.38
2023-02-04T23:49:31.174Z,4.30
2023-02-04T23:52:00.332Z,4.30
2023-02-04T23:54:27.478Z,4.53
2023-02-04T23:56:54.389Z,4.13
2023-02-04T23:59:21.334Z,4.10
